Time;durP1;ratioP1;P1;durP2;ratioP2;P2;SDS_P1;SDS_P2;PMS_P1;PMS_P2;Temp;Humidity;BMP_temperature;BMP_pressure;BME280_temperature;BME280_humidity;BME280_pressure;Samples;Min_cycle;Max_cycle;Signal;HPM_P1;HPM_P2
2021/10/03 00:00:33;;;;;;;27.37;12.88;;;;;;;6.96;65.92;101365.06;1771061;81;21222;-75
2021/10/03 00:03:39;;;;;;;21.20;11.08;;;;;;;6.98;65.79;101360.38;1771303;81;21711;-74
2021/10/03 00:06:45;;;;;;;28.65;11.85;;;;;;;7.01;65.58;101362.85;1769853;81;21829;-75
2021/10/03 00:09:51;;;;;;;23.80;12.15;;;;;;;7.02;65.43;101359.13;1769909;81;21657;-75
2021/10/03 00:13:03;;;;;;;25.97;13.48;;;;;;;7.03;65.39;101358.13;1772167;81;21178;-75
2021/10/03 00:16:06;;;;;;;25.60;12.45;;;;;;;7.02;65.39;101352.83;1771454;81;21236;-75
2021/10/03 00:19:12;;;;;;;29.02;13.15;;;;;;;7.01;65.43;101352.44;1770324;81;21183;-74
2021/10/03 00:22:11;;;;;;;23.30;12.20;;;;;;;7.00;65.49;101354.80;1771156;81;21309;-75
2021/10/03 00:25:17;;;;;;;24.15;12.80;;;;;;;6.97;65.50;101347.77;1769754;81;21238;-75
2021/10/03 00:28:22;;;;;;;23.70;11.70;;;;;;;6.95;65.61;101355.67;1770972;81;21345;-75
2021/10/03 00:31:27;;;;;;;28.25;12.95;;;;;;;6.90;65.83;101347.90;1771284;81;21285;-75
2021/10/03 00:34:32;;;;;;;19.75;10.63;;;;;;;6.87;66.00;101347.67;1771294;81;21298;-75
2021/10/03 00:37:38;;;;;;;29.95;11.88;;;;;;;6.84;66.15;101345.70;1771051;80;21884;-75
2021/10/03 00:40:46;;;;;;;23.10;12.10;;;;;;;6.82;66.20;101352.63;1771050;81;21297;-76
2021/10/03 00:43:52;;;;;;;24.63;11.03;;;;;;;6.79;66.68;101354.23;1771769;81;21305;-76
2021/10/03 00:46:58;;;;;;;37.10;13.53;;;;;;;6.76;66.71;101343.59;1771000;81;21298;-76
2021/10/03 00:49:57;;;;;;;31.85;12.70;;;;;;;6.75;66.80;101347.31;1770130;81;21210;-76
2021/10/03 00:53:04;;;;;;;24.05;12.82;;;;;;;6.72;66.96;101355.72;1771064;81;21217;-76
2021/10/03 00:56:12;;;;;;;20.00;12.10;;;;;;;6.69;67.08;101353.27;1770989;81;21301;-75
2021/10/03 00:59:17;;;;;;;26.37;12.73;;;;;;;6.64;67.19;101351.42;1771189;80;21805;-76
2021/10/03 01:02:23;;;;;;;23.07;11.45;;;;;;;6.62;67.37;101347.45;1769795;81;21274;-76
2021/10/03 01:05:28;;;;;;;23.90;12.23;;;;;;;6.59;67.43;101353.16;1769591;81;22557;-75
2021/10/03 01:08:36;;;;;;;29.02;11.78;;;;;;;6.57;67.55;101351.54;1770672;81;21322;-75
2021/10/03 01:11:42;;;;;;;26.07;12.23;;;;;;;6.55;67.62;101352.17;1771037;81;21298;-76
2021/10/03 01:14:48;;;;;;;24.30;11.28;;;;;;;6.51;67.75;101354.27;1769749;81;21286;-76
2021/10/03 01:17:54;;;;;;;25.27;11.50;;;;;;;6.48;67.93;101356.36;1769525;81;21229;-76
2021/10/03 01:20:59;;;;;;;20.72;10.65;;;;;;;6.44;68.09;101354.38;1771077;81;21218;-75
2021/10/03 01:24:05;;;;;;;24.55;11.40;;;;;;;6.42;68.27;101356.88;1770676;81;21329;-76
2021/10/03 01:27:10;;;;;;;24.05;11.57;;;;;;;6.38;68.47;101353.53;1772108;81;21333;-76
2021/10/03 01:30:19;;;;;;;22.35;11.90;;;;;;;6.34;68.51;101352.91;1772058;81;21213;-75
2021/10/03 01:33:26;;;;;;;28.25;11.30;;;;;;;6.32;68.71;101351.31;1772060;81;21267;-76
2021/10/03 01:36:32;;;;;;;25.55;11.57;;;;;;;6.28;68.85;101360.70;1771309;81;21298;-76
2021/10/03 01:39:39;;;;;;;24.27;12.35;;;;;;;6.24;69.05;101349.20;1781935;80;21222;-75
2021/10/03 01:42:44;;;;;;;22.30;10.95;;;;;;;6.22;69.28;101348.48;1783445;80;21178;-76
2021/10/03 01:45:49;;;;;;;23.47;11.18;;;;;;;6.20;69.47;101355.00;1783456;80;21182;-75
2021/10/03 01:48:57;;;;;;;25.20;12.00;;;;;;;6.17;69.67;101354.77;1784389;80;21356;-75
2021/10/03 01:52:03;;;;;;;20.80;11.05;;;;;;;6.14;69.73;101342.78;1784820;80;21841;-75
2021/10/03 01:55:09;;;;;;;24.27;10.72;;;;;;;6.13;69.83;101346.50;1784097;80;21321;-75
2021/10/03 01:58:14;;;;;;;27.15;12.43;;;;;;;6.11;69.85;101347.09;1784939;80;22502;-75
2021/10/03 02:01:23;;;;;;;25.12;11.48;;;;;;;6.07;69.99;101343.78;1784956;80;21878;-75
2021/10/03 02:04:30;;;;;;;31.45;11.63;;;;;;;6.05;70.13;101340.80;1786006;80;21289;-75
2021/10/03 02:07:34;;;;;;;22.93;10.53;;;;;;;6.01;70.15;101338.81;1785870;80;21250;-75
2021/10/03 02:10:39;;;;;;;26.87;11.65;;;;;;;5.99;70.22;101341.30;1785653;80;21170;-75
2021/10/03 02:13:45;;;;;;;24.63;10.48;;;;;;;5.96;70.31;101342.89;1785873;80;21313;-75
2021/10/03 02:16:52;;;;;;;24.05;10.85;;;;;;;5.90;70.46;101338.28;1784971;80;22686;-75
2021/10/03 02:19:57;;;;;;;21.40;10.13;;;;;;;5.88;70.50;101335.30;1784516;80;21366;-76
2021/10/03 02:23:03;;;;;;;24.10;11.20;;;;;;;5.86;70.63;101336.79;1784930;80;21888;-76
2021/10/03 02:26:09;;;;;;;26.00;10.63;;;;;;;5.83;70.75;101338.41;1783447;80;21219;-76
2021/10/03 02:29:14;;;;;;;22.75;11.38;;;;;;;5.79;70.83;101338.27;1784788;80;21319;-76
2021/10/03 02:32:20;;;;;;;27.30;11.97;;;;;;;5.74;70.98;101336.41;1784849;80;21710;-76
2021/10/03 02:35:26;;;;;;;21.02;9.68;;;;;;;5.71;71.23;101336.64;1785052;80;21355;-76
2021/10/03 02:38:32;;;;;;;20.27;10.20;;;;;;;5.70;71.43;101334.06;1785176;80;21193;-76
2021/10/03 02:41:38;;;;;;;27.17;10.10;;;;;;;5.67;71.61;101328.36;1777828;80;21864;-76
2021/10/03 02:44:44;;;;;;;21.25;10.30;;;;;;;5.68;71.84;101333.30;1778087;80;21825;-76
2021/10/03 02:47:50;;;;;;;25.88;10.82;;;;;;;5.68;71.89;101327.38;1777812;80;21841;-75
2021/10/03 02:50:57;;;;;;;24.57;10.55;;;;;;;5.70;72.04;101329.49;1778859;80;21330;-75
2021/10/03 02:54:03;;;;;;;20.62;10.15;;;;;;;5.71;71.99;101323.56;1779272;80;21218;-75
2021/10/03 02:57:08;;;;;;;18.62;9.55;;;;;;;5.72;72.04;101331.58;1780311;80;21766;-75
2021/10/03 03:00:15;;;;;;;20.50;9.80;;;;;;;5.74;72.24;101335.52;1779660;80;21238;-75
2021/10/03 03:03:13;;;;;;;22.05;9.85;;;;;;;5.77;72.34;101337.52;1780290;80;21253;-75
2021/10/03 03:06:19;;;;;;;23.67;9.98;;;;;;;5.78;72.31;101329.73;1779262;80;21706;-75
2021/10/03 03:09:25;;;;;;;27.30;11.08;;;;;;;5.82;72.26;101326.29;1779485;80;21289;-75
2021/10/03 03:12:30;;;;;;;20.10;10.20;;;;;;;5.84;72.27;101331.98;1779470;80;21285;-76
2021/10/03 03:15:36;;;;;;;24.85;10.88;;;;;;;5.88;72.26;101331.23;1779278;80;21336;-76
2021/10/03 03:18:43;;;;;;;19.92;9.50;;;;;;;5.89;72.27;101328.41;1779556;80;21344;-76
2021/10/03 03:21:50;;;;;;;20.37;10.75;;;;;;;5.93;72.16;101334.50;1778312;80;21290;-76
2021/10/03 03:24:56;;;;;;;21.73;9.33;;;;;;;5.93;72.11;101336.33;1777846;80;21876;-76
2021/10/03 03:28:01;;;;;;;22.42;10.88;;;;;;;5.90;72.13;101330.13;1778064;80;21814;-76
2021/10/03 03:31:07;;;;;;;18.57;9.98;;;;;;;5.87;72.15;101335.80;1778999;80;21214;-76
2021/10/03 03:34:11;;;;;;;18.57;10.05;;;;;;;5.81;72.35;101333.58;1779303;80;21897;-76
2021/10/03 03:37:17;;;;;;;22.13;9.60;;;;;;;5.78;72.66;101336.52;1779465;80;21178;-76
2021/10/03 03:40:24;;;;;;;18.05;8.55;;;;;;;5.77;73.02;101338.01;1780344;80;21313;-76
2021/10/03 03:43:29;;;;;;;18.65;9.68;;;;;;;5.78;73.22;101342.45;1779064;80;21309;-76
2021/10/03 03:46:35;;;;;;;24.52;10.43;;;;;;;5.77;73.23;101333.44;1777909;80;21349;-76
2021/10/03 03:49:41;;;;;;;21.42;10.35;;;;;;;5.78;73.30;101345.16;1777972;80;21202;-75
2021/10/03 03:52:48;;;;;;;20.32;9.60;;;;;;;5.76;73.24;101339.86;1777775;80;21215;-76
2021/10/03 03:55:52;;;;;;;21.82;9.25;;;;;;;5.76;73.22;101342.58;1780247;80;21174;-75
2021/10/03 03:58:58;;;;;;;26.87;9.60;;;;;;;5.75;73.24;101341.35;1780302;80;21262;-76
2021/10/03 04:02:03;;;;;;;27.65;9.60;;;;;;;5.74;73.29;101348.63;1779602;80;21321;-76
2021/10/03 04:05:09;;;;;;;22.02;8.88;;;;;;;5.74;73.36;101351.34;1778072;80;21179;-76
2021/10/03 04:08:16;;;;;;;21.57;9.23;;;;;;;5.76;73.51;101348.01;1779440;80;21167;-76
2021/10/03 04:11:22;;;;;;;20.60;9.58;;;;;;;5.79;73.48;101358.64;1779107;80;21183;-77
2021/10/03 04:14:27;;;;;;;24.10;8.68;;;;;;;5.83;73.52;101353.34;1779320;80;21233;-77
2021/10/03 04:17:33;;;;;;;19.20;8.90;;;;;;;5.90;73.55;101353.71;1779225;80;21182;-77
2021/10/03 04:20:39;;;;;;;25.75;8.43;;;;;;;5.98;73.54;101345.87;1779242;80;21218;-77
2021/10/03 04:23:44;;;;;;;16.65;8.03;;;;;;;6.12;73.44;101355.64;1777987;80;21309;-77
2021/10/03 04:26:50;;;;;;;29.40;8.80;;;;;;;6.26;73.16;101344.53;1778984;80;21218;-77
2021/10/03 04:29:55;;;;;;;20.95;8.38;;;;;;;6.44;72.75;101349.45;1779301;80;21293;-75
2021/10/03 04:33:01;;;;;;;13.90;8.10;;;;;;;6.57;72.26;101342.89;1778424;80;21190;-74
2021/10/03 04:36:07;;;;;;;18.48;8.70;;;;;;;6.71;71.83;101345.83;1779300;80;21198;-75
2021/10/03 04:39:12;;;;;;;21.07;7.92;;;;;;;6.84;71.40;101349.28;1779198;80;21340;-75
2021/10/03 04:42:19;;;;;;;23.05;7.60;;;;;;;6.97;71.02;101352.35;1772774;80;22580;-75
2021/10/03 04:45:25;;;;;;;14.03;7.30;;;;;;;7.08;70.62;101356.39;1771116;81;21353;-75
2021/10/03 04:48:31;;;;;;;17.85;7.65;;;;;;;7.17;70.27;101353.75;1769569;81;21338;-75
2021/10/03 04:51:37;;;;;;;18.67;7.67;;;;;;;7.27;70.09;101357.92;1770986;81;21561;-75
2021/10/03 04:54:43;;;;;;;24.25;7.78;;;;;;;7.36;69.77;101361.23;1771132;81;21243;-75
2021/10/03 04:57:49;;;;;;;28.47;7.37;;;;;;;7.47;69.58;101361.67;1770387;81;21982;-75
2021/10/03 05:00:55;;;;;;;13.83;6.75;;;;;;;7.58;69.17;101367.08;1770443;81;21762;-77
2021/10/03 05:04:01;;;;;;;17.85;7.90;;;;;;;7.71;68.81;101365.51;1769636;81;21908;-75
2021/10/03 05:07:05;;;;;;;22.85;7.40;;;;;;;7.84;68.15;101368.91;1771276;81;21341;-74
2021/10/03 05:10:12;;;;;;;14.53;7.30;;;;;;;7.96;67.58;101367.50;1771147;81;21814;-74
2021/10/03 05:13:18;;;;;;;13.60;6.95;;;;;;;8.08;67.03;101373.21;1770351;81;21313;-75
2021/10/03 05:16:23;;;;;;;24.75;7.22;;;;;;;8.17;66.55;101368.32;1771085;81;21357;-75
2021/10/03 05:19:29;;;;;;;16.02;6.85;;;;;;;8.25;66.30;101365.79;1771297;81;21811;-75
2021/10/03 05:22:35;;;;;;;13.65;7.12;;;;;;;8.34;65.75;101370.42;1771060;81;21302;-75
2021/10/03 05:25:40;;;;;;;14.38;7.55;;;;;;;8.43;65.47;101372.87;1771109;81;21230;-73
2021/10/03 05:28:46;;;;;;;19.48;7.22;;;;;;;8.58;65.22;101369.27;1770231;81;21286;-75
2021/10/03 05:31:53;;;;;;;18.05;7.10;;;;;;;8.73;64.90;101365.66;1771063;81;21187;-75
2021/10/03 05:34:59;;;;;;;15.35;6.55;;;;;;;8.79;64.10;101374.13;1771076;81;21175;-75
2021/10/03 05:38:05;;;;;;;14.58;6.85;;;;;;;8.77;63.83;101382.98;1771231;81;21909;-75
2021/10/03 05:41:11;;;;;;;20.70;6.90;;;;;;;8.77;63.56;101376.16;1771312;81;21638;-75
2021/10/03 05:44:16;;;;;;;17.57;6.37;;;;;;;8.82;63.41;101374.38;1783372;80;21937;-75
2021/10/03 05:47:21;;;;;;;20.02;6.50;;;;;;;8.91;63.49;101371.67;1784421;80;21293;-75
2021/10/03 05:50:28;;;;;;;14.30;6.40;;;;;;;9.09;62.75;101369.64;1785461;80;21154;-75
2021/10/03 05:53:34;;;;;;;19.82;5.92;;;;;;;9.29;61.94;101372.73;1785445;80;21289;-75
2021/10/03 05:56:41;;;;;;;15.43;5.37;;;;;;;9.45;61.13;101370.30;1784943;80;21301;-75
2021/10/03 05:59:46;;;;;;;10.48;5.37;;;;;;;9.54;60.63;101367.20;1784078;80;21317;-75
2021/10/03 06:02:51;;;;;;;15.60;5.10;;;;;;;9.66;59.71;101370.16;1785647;80;21266;-75
2021/10/03 06:05:56;;;;;;;14.45;4.92;;;;;;;9.83;58.97;101363.09;1785550;80;21162;-75
2021/10/03 06:09:01;;;;;;;13.40;4.40;;;;;;;10.05;57.52;101369.25;1784610;80;21298;-76
2021/10/03 06:12:07;;;;;;;14.23;4.45;;;;;;;10.24;57.16;101365.98;1784592;80;21356;-75
2021/10/03 06:15:14;;;;;;;12.13;4.78;;;;;;;10.39;56.20;101362.26;1783208;80;21309;-75
2021/10/03 06:18:21;;;;;;;9.18;4.33;;;;;;;10.45;55.23;101373.98;1785580;80;21155;-75
2021/10/03 06:21:27;;;;;;;15.43;5.10;;;;;;;10.47;54.90;101376.05;1785454;80;21163;-75
2021/10/03 06:24:33;;;;;;;17.23;5.08;;;;;;;10.48;54.92;101368.70;1783661;80;21296;-75
2021/10/03 06:27:38;;;;;;;9.60;4.62;;;;;;;10.53;55.41;101368.26;1784521;80;21290;-76
2021/10/03 06:30:46;;;;;;;9.00;4.55;;;;;;;10.65;54.63;101356.13;1784818;80;21178;-76
2021/10/03 06:33:53;;;;;;;11.97;4.30;;;;;;;10.72;54.53;101360.81;1784375;80;21943;-76
2021/10/03 06:36:59;;;;;;;9.13;4.40;;;;;;;10.80;55.01;101364.68;1783258;80;21883;-75
2021/10/03 06:40:05;;;;;;;10.55;4.22;;;;;;;10.85;54.44;101363.72;1784744;80;21305;-75
2021/10/03 06:43:10;;;;;;;7.25;3.62;;;;;;;10.85;53.01;101381.00;1783163;80;21341;-75
2021/10/03 06:46:17;;;;;;;9.65;3.83;;;;;;;10.91;52.78;101371.31;1770952;81;21298;-75
2021/10/03 06:49:22;;;;;;;11.90;3.20;;;;;;;11.12;52.46;101369.17;1771078;81;21297;-75
2021/10/03 06:52:27;;;;;;;9.23;3.05;;;;;;;11.38;50.30;101358.81;1771066;81;21743;-75
2021/10/03 06:55:31;;;;;;;15.15;4.05;;;;;;;11.55;49.83;101369.44;1769858;81;21837;-75
2021/10/03 06:58:36;;;;;;;6.12;3.47;;;;;;;11.68;49.40;101364.42;1771323;81;21274;-75
2021/10/03 07:01:43;;;;;;;11.43;4.03;;;;;;;11.84;49.12;101371.95;1770158;81;21849;-76
2021/10/03 07:04:50;;;;;;;9.73;3.87;;;;;;;11.93;48.37;101370.48;1770374;81;21285;-75
2021/10/03 07:07:55;;;;;;;10.50;3.80;;;;;;;11.93;48.55;101371.84;1771240;81;21179;-75
2021/10/03 07:11:01;;;;;;;12.75;4.00;;;;;;;11.97;48.32;101370.52;1770962;81;21325;-76
2021/10/03 07:14:08;;;;;;;22.22;4.47;;;;;;;12.00;48.42;101358.38;1769496;81;21275;-75
2021/10/03 07:17:13;;;;;;;10.65;4.72;;;;;;;12.05;48.27;101361.50;1771280;81;21877;-75
2021/10/03 07:20:19;;;;;;;8.78;3.92;;;;;;;12.10;48.36;101363.77;1769791;81;21811;-75
2021/10/03 07:23:28;;;;;;;7.30;3.77;;;;;;;12.12;48.11;101350.73;1769694;81;21342;-75
2021/10/03 07:26:33;;;;;;;9.88;4.10;;;;;;;12.11;48.27;101360.84;1769851;81;21301;-75
2021/10/03 07:29:38;;;;;;;9.60;3.75;;;;;;;12.08;48.79;101372.13;1769921;81;21360;-75
2021/10/03 07:32:45;;;;;;;10.63;4.03;;;;;;;12.18;48.64;101366.02;1771243;81;21293;-76
2021/10/03 07:35:50;;;;;;;12.88;4.08;;;;;;;12.31;48.46;101342.28;1769985;81;21864;-75
2021/10/03 07:38:56;;;;;;;9.30;4.58;;;;;;;12.34;48.52;101341.11;1769935;80;21821;-76
2021/10/03 07:42:03;;;;;;;13.15;5.45;;;;;;;12.37;48.52;101335.27;1769688;80;21191;-75
2021/10/03 07:45:10;;;;;;;10.55;4.87;;;;;;;12.40;48.42;101339.93;1775305;80;21364;-76
2021/10/03 07:48:15;;;;;;;10.82;4.72;;;;;;;12.45;48.19;101339.44;1779235;80;21885;-76
2021/10/03 07:51:23;;;;;;;12.63;4.78;;;;;;;12.46;47.96;101338.41;1779210;80;21293;-75
2021/10/03 07:54:28;;;;;;;10.03;4.35;;;;;;;12.48;47.77;101342.73;1779276;80;21302;-75
2021/10/03 07:57:35;;;;;;;11.90;5.60;;;;;;;12.50;47.45;101365.36;1779366;80;22484;-74
2021/10/03 08:00:40;;;;;;;14.63;5.08;;;;;;;12.48;47.55;101344.10;1777718;80;21226;-76
2021/10/03 08:03:46;;;;;;;12.75;4.72;;;;;;;12.52;47.78;101335.03;1779228;80;21753;-76
2021/10/03 08:06:52;;;;;;;13.28;3.87;;;;;;;12.59;48.12;101346.20;1779267;80;21226;-76
2021/10/03 08:09:59;;;;;;;9.50;4.05;;;;;;;12.59;47.81;101349.80;1779255;80;21281;-76
2021/10/03 08:13:06;;;;;;;11.93;4.55;;;;;;;12.58;47.93;101339.86;1779297;80;21298;-75
2021/10/03 08:16:11;;;;;;;14.30;4.40;;;;;;;12.64;48.09;101338.34;1778291;80;21639;-76
2021/10/03 08:19:18;;;;;;;14.10;4.25;;;;;;;12.76;47.73;101341.14;1779253;80;21356;-75
2021/10/03 08:22:23;;;;;;;7.28;3.47;;;;;;;12.92;47.53;101342.56;1779232;80;21174;-75
2021/10/03 08:25:30;;;;;;;5.78;3.10;;;;;;;13.04;47.92;101335.74;1778967;80;21298;-76
2021/10/03 08:28:36;;;;;;;10.45;3.10;;;;;;;13.18;47.90;101337.50;1779273;80;21953;-76
2021/10/03 08:31:42;;;;;;;8.28;3.65;;;;;;;13.20;47.52;101357.41;1778399;80;21499;-75
2021/10/03 08:34:47;;;;;;;6.35;3.22;;;;;;;13.18;47.10;101348.48;1779248;80;21183;-75
2021/10/03 08:37:54;;;;;;;8.53;3.50;;;;;;;13.12;47.41;101347.25;1779202;80;21221;-75
2021/10/03 08:41:00;;;;;;;8.53;3.50;;;;;;;13.07;47.66;101349.64;1779468;80;21716;-75
2021/10/03 08:44:06;;;;;;;14.75;3.55;;;;;;;13.02;48.23;101347.91;1764199;80;21238;-75
2021/10/03 08:47:13;;;;;;;6.67;3.50;;;;;;;13.05;48.43;101347.06;1770716;80;21183;-75
2021/10/03 08:50:21;;;;;;;10.72;4.12;;;;;;;13.08;48.39;101350.49;1771330;81;21249;-76
2021/10/03 08:53:25;;;;;;;13.43;3.20;;;;;;;13.07;48.59;101357.02;1771353;81;21841;-75
2021/10/03 08:56:32;;;;;;;15.78;4.87;;;;;;;12.99;49.27;101343.62;1770528;81;21774;-75
2021/10/03 08:59:37;;;;;;;14.10;5.75;;;;;;;12.99;49.07;101347.75;1771247;81;21164;-76
2021/10/03 09:03:14;;;;;;;14.07;4.25;;;;;;;13.03;48.75;101342.27;1769683;81;21321;-75
2021/10/03 09:06:22;;;;;;;10.63;5.25;;;;;;;13.05;49.12;101354.45;1771882;81;21262;-75
2021/10/03 09:09:27;;;;;;;15.98;5.60;;;;;;;13.02;49.31;101352.03;1771162;81;21836;-76
2021/10/03 09:12:45;;;;;;;13.85;5.78;;;;;;;13.03;49.75;101346.88;1771274;81;21885;-76
2021/10/03 09:15:50;;;;;;;12.73;5.15;;;;;;;13.09;49.73;101335.76;1769865;81;21853;-75
2021/10/03 09:19:06;;;;;;;13.20;4.42;;;;;;;13.21;50.17;101335.77;1771263;81;21164;-75
2021/10/03 09:22:11;;;;;;;9.20;2.98;;;;;;;13.35;50.08;101337.88;1771320;81;21747;-74
2021/10/03 09:25:18;;;;;;;8.50;3.58;;;;;;;13.50;50.20;101332.09;1771079;81;21310;-75
2021/10/03 09:28:30;;;;;;;9.08;3.95;;;;;;;13.51;50.27;101342.05;1771258;81;21298;-75
2021/10/03 09:31:35;;;;;;;17.85;4.25;;;;;;;13.43;50.95;101341.17;1770933;81;21325;-75
2021/10/03 09:34:41;;;;;;;9.38;3.90;;;;;;;13.28;49.74;101345.09;1771152;81;21234;-76
2021/10/03 09:37:47;;;;;;;9.20;3.50;;;;;;;13.20;50.14;101340.41;1769899;81;21797;-76
2021/10/03 09:40:52;;;;;;;8.43;3.70;;;;;;;13.15;48.96;101344.17;1771175;81;21476;-75
2021/10/03 09:44:02;;;;;;;7.28;3.67;;;;;;;13.12;48.64;101351.36;1770989;81;21294;-75
2021/10/03 09:47:07;;;;;;;11.25;3.45;;;;;;;13.15;48.46;101339.20;1771206;80;21325;-76
2021/10/03 09:50:14;;;;;;;10.28;4.20;;;;;;;13.20;47.78;101329.42;1771234;81;21829;-75
2021/10/03 09:53:20;;;;;;;8.30;4.28;;;;;;;13.20;47.89;101318.94;1771626;81;21191;-75
2021/10/03 09:56:26;;;;;;;11.38;4.42;;;;;;;13.24;47.82;101314.35;1763075;81;21385;-75
2021/10/03 09:59:33;;;;;;;11.45;4.78;;;;;;;13.32;48.04;101320.38;1771124;81;21302;-76
2021/10/03 10:02:38;;;;;;;11.83;4.95;;;;;;;13.43;48.55;101309.05;1770736;81;21333;-75
2021/10/03 10:05:45;;;;;;;13.25;3.47;;;;;;;13.58;48.40;101312.48;1771088;81;21336;-76
2021/10/03 10:08:55;;;;;;;10.30;4.12;;;;;;;13.59;47.64;101305.44;1771289;81;21888;-76
2021/10/03 10:12:13;;;;;;;14.03;4.45;;;;;;;13.53;47.19;101308.88;1769772;80;21179;-76
2021/10/03 10:15:19;;;;;;;11.78;4.70;;;;;;;13.42;47.32;101308.71;1771085;81;21745;-74
2021/10/03 10:18:30;;;;;;;8.00;4.05;;;;;;;13.34;46.82;101315.56;1769708;81;21195;-75
2021/10/03 10:21:36;;;;;;;13.83;4.55;;;;;;;13.25;46.55;101311.09;1771286;81;21340;-76
2021/10/03 10:24:54;;;;;;;19.23;5.83;;;;;;;13.22;46.58;101307.30;1771182;81;21179;-75
2021/10/03 10:28:04;;;;;;;11.55;5.47;;;;;;;13.25;46.32;101302.84;1770593;81;21195;-76
2021/10/03 10:31:24;;;;;;;14.30;5.92;;;;;;;13.34;46.44;101303.20;1771330;81;21302;-75
2021/10/03 10:34:29;;;;;;;15.18;6.37;;;;;;;13.53;45.61;101305.61;1769766;81;21277;-76
2021/10/03 10:38:03;;;;;;;15.63;4.83;;;;;;;13.73;45.23;101300.62;1770791;81;21214;-76
2021/10/03 10:41:08;;;;;;;19.90;4.90;;;;;;;13.91;44.28;101286.68;1771142;81;21290;-76
2021/10/03 10:44:39;;;;;;;14.07;4.65;;;;;;;13.99;44.27;101296.82;1762616;81;21300;-76
2021/10/03 10:47:45;;;;;;;14.05;5.42;;;;;;;14.10;44.02;101295.06;1771696;80;21353;-77
2021/10/03 10:51:01;;;;;;;14.87;5.37;;;;;;;14.16;43.35;101301.27;1771089;81;21310;-77
2021/10/03 10:54:21;;;;;;;9.53;4.35;;;;;;;14.16;43.06;101301.75;1771154;81;21298;-76
2021/10/03 10:57:26;;;;;;;19.67;5.83;;;;;;;14.10;42.66;101301.09;1771039;81;21342;-76
2021/10/03 11:00:33;;;;;;;15.25;5.40;;;;;;;14.11;42.72;101302.80;1770912;81;21325;-76
2021/10/03 11:03:59;;;;;;;12.33;5.37;;;;;;;14.16;43.23;101290.26;1771875;81;21191;-75
2021/10/03 11:07:04;;;;;;;12.90;4.62;;;;;;;14.26;42.40;101288.69;1771257;81;21802;-75
2021/10/03 11:10:11;;;;;;;9.88;4.08;;;;;;;14.41;42.09;101280.55;1771120;81;21281;-75
2021/10/03 11:13:50;;;;;;;8.43;4.17;;;;;;;14.59;41.92;101269.33;1771094;81;21183;-76
2021/10/03 11:16:51;;;;;;;9.10;3.30;;;;;;;14.73;41.71;101270.80;1769845;80;21187;-75
2021/10/03 11:19:51;;;;;;;10.72;3.92;;;;;;;14.92;41.51;101269.48;1771570;81;21302;-75
2021/10/03 11:22:37;;;;;;;10.80;3.52;;;;;;;15.09;40.79;101274.34;1770044;80;21179;-75
2021/10/03 11:25:31;;;;;;;6.95;3.58;;;;;;;15.20;40.86;101280.83;1771321;81;21333;-75
2021/10/03 11:28:17;;;;;;;15.75;4.15;;;;;;;15.24;40.33;101262.02;1770735;81;21187;-76
2021/10/03 11:31:50;;;;;;;14.35;3.72;;;;;;;15.25;40.35;101263.75;1771349;81;21298;-76
2021/10/03 11:34:59;;;;;;;5.58;3.25;;;;;;;15.24;39.60;101263.39;1771315;81;21309;-75
2021/10/03 11:38:08;;;;;;;6.83;2.70;;;;;;;15.19;39.26;101269.97;1771019;81;21325;-75
2021/10/03 11:41:14;;;;;;;6.28;2.00;;;;;;;15.18;38.83;101263.61;1771099;81;21285;-75
2021/10/03 11:44:29;;;;;;;6.37;2.40;;;;;;;15.18;38.38;101267.73;1771407;81;21309;-75
2021/10/03 11:47:35;;;;;;;5.97;2.65;;;;;;;15.15;38.30;101263.99;1771051;81;21546;-76
2021/10/03 11:50:48;;;;;;;7.90;2.47;;;;;;;15.17;38.16;101263.28;1784524;80;21190;-75
2021/10/03 11:53:53;;;;;;;8.60;2.72;;;;;;;15.20;38.44;101262.92;1785517;80;21848;-75
2021/10/03 11:56:58;;;;;;;6.47;2.52;;;;;;;15.33;37.76;101260.91;1785552;80;21186;-76
2021/10/03 12:00:27;;;;;;;12.63;2.87;;;;;;;15.36;37.39;101268.82;1785456;80;21762;-75
2021/10/03 12:03:32;;;;;;;10.95;2.67;;;;;;;15.36;37.40;101261.08;1784819;80;21285;-75
2021/10/03 12:06:39;;;;;;;8.40;3.30;;;;;;;15.38;37.87;101258.45;1784437;80;21856;-76
2021/10/03 12:09:44;;;;;;;7.65;3.27;;;;;;;15.41;37.33;101262.23;1782958;80;21250;-76
2021/10/03 12:12:59;;;;;;;4.40;2.92;;;;;;;15.42;36.97;101252.91;1782998;80;21825;-76
2021/10/03 12:16:14;;;;;;;12.33;2.90;;;;;;;15.52;37.34;101260.40;1785569;80;21262;-75
2021/10/03 12:19:19;;;;;;;9.98;2.50;;;;;;;15.69;37.01;101254.78;1784192;80;21376;-75
2021/10/03 12:22:25;;;;;;;7.70;3.05;;;;;;;15.77;36.86;101265.22;1784511;80;21190;-76
2021/10/03 12:25:47;;;;;;;7.40;3.37;;;;;;;15.87;36.32;101266.33;1783830;80;21904;-76
2021/10/03 12:29:18;;;;;;;9.05;3.45;;;;;;;15.88;36.02;101269.94;1784243;80;21833;-76
2021/10/03 12:32:23;;;;;;;10.28;2.72;;;;;;;15.91;36.31;101269.58;1784698;80;21312;-76
2021/10/03 12:35:28;;;;;;;14.25;4.30;;;;;;;15.93;36.11;101262.81;1784614;80;21721;-75
2021/10/03 12:38:33;;;;;;;8.58;3.65;;;;;;;15.98;36.00;101263.63;1784411;80;21234;-75
2021/10/03 12:44:13;;;;;;;11.08;3.42;;;;;;;16.10;35.52;101258.84;1857331;76;27993;-76
2021/10/03 12:47:18;;;;;;;16.80;2.80;;;;;;;16.07;35.58;101275.77;1749385;82;21290;-76
2021/10/03 12:50:23;;;;;;;8.73;3.30;;;;;;;16.02;35.69;101265.81;1768084;81;21138;-75
2021/10/03 12:53:29;;;;;;;7.33;3.95;;;;;;;15.95;35.89;101270.89;1751628;82;21246;-76
2021/10/03 12:56:34;;;;;;;13.28;3.50;;;;;;;15.89;35.49;101268.36;1767217;81;21296;-75
2021/10/03 12:59:40;;;;;;;11.22;3.60;;;;;;;15.83;35.23;101274.12;1750669;82;21226;-76
2021/10/03 13:02:46;;;;;;;9.18;3.72;;;;;;;15.75;35.26;101272.80;1737629;82;21880;-76
2021/10/03 13:05:53;;;;;;;8.88;3.87;;;;;;;15.69;35.62;101255.64;1737225;82;21312;-75
2021/10/03 13:09:00;;;;;;;10.68;4.58;;;;;;;15.67;35.37;101263.78;1747953;82;21192;-76
2021/10/03 13:12:06;;;;;;;12.63;4.37;;;;;;;15.62;35.20;101254.66;1748096;82;21193;-76
2021/10/03 13:15:14;;;;;;;10.38;4.33;;;;;;;15.59;35.51;101255.02;1746660;82;21232;-76
2021/10/03 13:18:20;;;;;;;16.93;5.33;;;;;;;15.60;35.63;101245.17;1747960;82;21296;-75
2021/10/03 13:21:26;;;;;;;12.93;5.72;;;;;;;15.60;35.82;101250.68;1746576;82;21843;-76
2021/10/03 13:24:32;;;;;;;10.75;4.42;;;;;;;15.60;35.19;101247.07;1746776;82;21878;-76
2021/10/03 13:27:37;;;;;;;15.93;5.20;;;;;;;15.57;35.67;101242.80;1748051;82;21307;-75
2021/10/03 13:30:43;;;;;;;13.18;4.58;;;;;;;15.54;35.61;101251.44;1747950;82;21233;-76
2021/10/03 13:33:49;;;;;;;8.15;3.20;;;;;;;15.53;35.70;101244.22;1747188;82;21359;-75
2021/10/03 13:36:55;;;;;;;7.67;3.00;;;;;;;15.51;35.76;101238.02;1746528;82;21255;-75
2021/10/03 13:40:00;;;;;;;8.85;3.30;;;;;;;15.53;36.05;101233.70;1744402;82;21192;-75
2021/10/03 13:43:05;;;;;;;8.98;3.47;;;;;;;15.51;35.89;101225.60;1745496;82;21887;-75
2021/10/03 13:46:12;;;;;;;6.60;3.22;;;;;;;15.51;35.86;101235.25;1734587;82;21177;-75
2021/10/03 13:49:16;;;;;;;8.38;3.30;;;;;;;15.49;35.87;101233.74;1734553;82;21245;-75
2021/10/03 13:52:22;;;;;;;10.72;3.58;;;;;;;15.47;35.81;101226.16;1734589;82;21951;-75
2021/10/03 13:55:27;;;;;;;12.43;5.50;;;;;;;15.43;35.80;101223.44;1734064;82;21379;-75
2021/10/03 13:58:33;;;;;;;8.35;5.10;;;;;;;15.36;36.13;101226.09;1733914;83;21328;-75
2021/10/03 14:01:39;;;;;;;12.63;6.20;;;;;;;15.31;36.26;101228.55;1732962;83;21228;-75
2021/10/03 14:04:45;;;;;;;12.00;5.85;;;;;;;15.24;36.23;101230.31;1733137;83;21344;-75
2021/10/03 14:07:51;;;;;;;15.48;5.78;;;;;;;15.18;36.61;101229.69;1733967;83;21332;-75
2021/10/03 14:10:57;;;;;;;11.80;6.15;;;;;;;15.12;36.74;101231.28;1733959;83;21307;-75
2021/10/03 14:14:03;;;;;;;12.37;5.67;;;;;;;15.08;36.72;101226.66;1733508;83;21364;-75
2021/10/03 14:17:08;;;;;;;12.78;6.60;;;;;;;15.07;36.78;101229.60;1711918;83;21731;-74
2021/10/03 14:20:15;;;;;;;17.80;7.75;;;;;;;15.05;36.88;101225.62;1692455;83;21190;-77
2021/10/03 14:23:20;;;;;;;10.50;5.10;;;;;;;15.06;37.14;101232.03;1717559;83;21850;-77
2021/10/03 14:26:26;;;;;;;15.50;6.00;;;;;;;15.06;37.23;101232.03;1695271;83;21283;-75